sensor_id;sensor_type;location;lat;lon;timestamp;pressure;altitude;pressure_sealevel;temperature;humidity
40155;BME280;25875;48.202;16.334;2022-08-01T00:02:00;98909.38;;;22.76;49.75
40155;BME280;25875;48.202;16.334;2022-08-01T00:04:27;98904.81;;;22.76;49.90
40155;BME280;25875;48.202;16.334;2022-08-01T00:06:54;98907.34;;;22.78;50.04
40155;BME280;25875;48.202;16.334;2022-08-01T00:09:21;98904.47;;;22.71;50.41
40155;BME280;25875;48.202;16.334;2022-08-01T00:11:49;98912.06;;;22.76;50.18
40155;BME280;25875;48.202;16.334;2022-08-01T00:14:17;98907.19;;;22.71;50.13
40155;BME280;25875;48.202;16.334;2022-08-01T00:16:44;98816.28;;;22.23;50.08
40155;BME280;25875;48.202;16.334;2022-08-01T00:19:12;98907.34;;;22.69;50.33
40155;BME280;25875;48.202;16.334;2022-08-01T00:21:39;98908.19;;;22.70;50.14
40155;BME280;25875;48.202;16.334;2022-08-01T00:24:06;98796.41;;;21.91;50.72
40155;BME280;25875;48.202;16.334;2022-08-01T00:26:33;98901.81;;;22.63;50.51
40155;BME280;25875;48.202;16.334;2022-08-01T00:29:01;98906.38;;;22.62;50.53
40155;BME280;25875;48.202;16.334;2022-08-01T00:31:29;98886.44;;;22.47;50.76
40155;BME280;25875;48.202;16.334;2022-08-01T00:33:57;98861.47;;;22.29;50.61
40155;BME280;25875;48.202;16.334;2022-08-01T00:36:24;98904.84;;;22.52;50.80
40155;BME280;25875;48.202;16.334;2022-08-01T00:38:51;98832.31;;;22.00;50.91
40155;BME280;25875;48.202;16.334;2022-08-01T00:41:18;98895.22;;;22.49;50.71
40155;BME280;25875;48.202;16.334;2022-08-01T00:43:46;98898.09;;;22.48;51.13
40155;BME280;25875;48.202;16.334;2022-08-01T00:46:13;98905.34;;;22.47;51.15
40155;BME280;25875;48.202;16.334;2022-08-01T00:48:42;98831.97;;;22.03;51.11
40155;BME280;25875;48.202;16.334;2022-08-01T00:51:10;98895.56;;;22.46;50.97
40155;BME280;25875;48.202;16.334;2022-08-01T00:53:39;98853.91;;;22.16;51.62
40155;BME280;25875;48.202;16.334;2022-08-01T00:56:08;98894.69;;;22.37;51.40
40155;BME280;25875;48.202;16.334;2022-08-01T00:58:36;98874.47;;;22.25;51.65
40155;BME280;25875;48.202;16.334;2022-08-01T01:01:03;98896.56;;;22.37;51.56
40155;BME280;25875;48.202;16.334;2022-08-01T01:03:31;98901.44;;;22.33;51.75
40155;BME280;25875;48.202;16.334;2022-08-01T01:06:11;98886.59;;;22.29;52.22
40155;BME280;25875;48.202;16.334;2022-08-01T01:08:43;98906.50;;;22.36;52.17
40155;BME280;25875;48.202;16.334;2022-08-01T01:11:17;98898.56;;;22.35;51.92
40155;BME280;25875;48.202;16.334;2022-08-01T01:13:52;98883.56;;;22.24;51.94
40155;BME280;25875;48.202;16.334;2022-08-01T01:16:22;98848.19;;;21.95;51.79
40155;BME280;25875;48.202;16.334;2022-08-01T01:18:52;98886.44;;;22.23;51.91
40155;BME280;25875;48.202;16.334;2022-08-01T01:21:35;98906.00;;;22.33;52.60
40155;BME280;25875;48.202;16.334;2022-08-01T01:24:18;98898.91;;;22.32;52.35
40155;BME280;25875;48.202;16.334;2022-08-01T01:26:53;98902.28;;;22.34;52.02
40155;BME280;25875;48.202;16.334;2022-08-01T01:29:26;98901.44;;;22.33;52.26
40155;BME280;25875;48.202;16.334;2022-08-01T01:31:57;98902.63;;;22.31;52.13
40155;BME280;25875;48.202;16.334;2022-08-01T01:34:27;98899.59;;;22.34;52.25
40155;BME280;25875;48.202;16.334;2022-08-01T01:36:58;98890.81;;;22.32;52.08
40155;BME280;25875;48.202;16.334;2022-08-01T01:39:28;98889.97;;;22.31;51.96
40155;BME280;25875;48.202;16.334;2022-08-01T01:41:57;98891.16;;;22.29;52.08
40155;BME280;25875;48.202;16.334;2022-08-01T01:44:27;98891.66;;;22.32;52.14
40155;BME280;25875;48.202;16.334;2022-08-01T01:46:56;98867.72;;;22.13;51.92
40155;BME280;25875;48.202;16.334;2022-08-01T01:49:26;98871.09;;;22.15;52.20
40155;BME280;25875;48.202;16.334;2022-08-01T01:51:56;98892.84;;;22.30;52.24
40155;BME280;25875;48.202;16.334;2022-08-01T01:54:28;98887.28;;;22.23;52.50
40155;BME280;25875;48.202;16.334;2022-08-01T01:56:56;98862.66;;;22.18;52.61
40155;BME280;25875;48.202;16.334;2022-08-01T01:59:28;98879.19;;;22.31;52.50
40155;BME280;25875;48.202;16.334;2022-08-01T02:02:00;98878.16;;;22.32;52.28
40155;BME280;25875;48.202;16.334;2022-08-01T02:04:30;98882.56;;;22.33;52.08
40155;BME280;25875;48.202;16.334;2022-08-01T02:06:58;98884.41;;;22.33;51.96
40155;BME280;25875;48.202;16.334;2022-08-01T02:09:28;98884.25;;;22.34;51.80
40155;BME280;25875;48.202;16.334;2022-08-01T02:11:57;98890.66;;;22.33;52.26
40155;BME280;25875;48.202;16.334;2022-08-01T02:14:25;98860.81;;;22.10;51.89
40155;BME280;25875;48.202;16.334;2022-08-01T02:16:56;98868.41;;;22.15;52.46
40155;BME280;25875;48.202;16.334;2022-08-01T02:19:25;98879.88;;;22.25;52.55
40155;BME280;25875;48.202;16.334;2022-08-01T02:21:56;98876.31;;;22.25;52.66
40155;BME280;25875;48.202;16.334;2022-08-01T02:24:31;98776.34;;;21.61;52.52
40155;BME280;25875;48.202;16.334;2022-08-01T02:27:06;98883.06;;;22.21;52.90
40155;BME280;25875;48.202;16.334;2022-08-01T02:29:39;98874.97;;;22.21;52.58
40155;BME280;25875;48.202;16.334;2022-08-01T02:32:11;98871.94;;;22.24;52.45
40155;BME280;25875;48.202;16.334;2022-08-01T02:34:39;98868.91;;;22.27;52.42
40155;BME280;25875;48.202;16.334;2022-08-01T02:37:09;98864.16;;;22.29;52.41
40155;BME280;25875;48.202;16.334;2022-08-01T02:39:38;98828.09;;;21.97;51.99
40155;BME280;25875;48.202;16.334;2022-08-01T02:42:07;98865.69;;;22.31;51.58
40155;BME280;25875;48.202;16.334;2022-08-01T02:44:38;98860.47;;;22.30;51.61
40155;BME280;25875;48.202;16.334;2022-08-01T02:47:09;98869.41;;;22.30;51.45
40155;BME280;25875;48.202;16.334;2022-08-01T02:49:42;98852.88;;;22.17;51.62
40155;BME280;25875;48.202;16.334;2022-08-01T02:52:13;98875.81;;;22.29;51.85
40155;BME280;25875;48.202;16.334;2022-08-01T02:54:42;98861.47;;;22.29;51.52
40155;BME280;25875;48.202;16.334;2022-08-01T02:57:13;98842.44;;;22.06;51.41
40155;BME280;25875;48.202;16.334;2022-08-01T02:59:42;98865.00;;;22.29;51.49
40155;BME280;25875;48.202;16.334;2022-08-01T03:02:11;98866.69;;;22.30;51.54
40155;BME280;25875;48.202;16.334;2022-08-01T03:04:41;98870.25;;;22.31;51.80
40155;BME280;25875;48.202;16.334;2022-08-01T03:07:10;98870.59;;;22.20;52.28
40155;BME280;25875;48.202;16.334;2022-08-01T03:09:45;98870.25;;;22.23;52.21
40155;BME280;25875;48.202;16.334;2022-08-01T03:12:14;98870.06;;;22.24;52.09
40155;BME280;25875;48.202;16.334;2022-08-01T03:14:44;98868.91;;;22.27;52.23
40155;BME280;25875;48.202;16.334;2022-08-01T03:17:15;98845.13;;;22.14;52.32
40155;BME280;25875;48.202;16.334;2022-08-01T03:19:44;98870.59;;;22.28;52.23
40155;BME280;25875;48.202;16.334;2022-08-01T03:22:13;98837.19;;;22.13;52.21
40155;BME280;25875;48.202;16.334;2022-08-01T03:24:44;98866.53;;;22.24;52.11
40155;BME280;25875;48.202;16.334;2022-08-01T03:27:14;98854.06;;;22.23;52.13
40155;BME280;25875;48.202;16.334;2022-08-01T03:29:43;98853.03;;;22.24;52.17
40155;BME280;25875;48.202;16.334;2022-08-01T03:32:14;98858.44;;;22.24;52.10
40155;BME280;25875;48.202;16.334;2022-08-01T03:34:42;98849.31;;;22.25;52.41
40155;BME280;25875;48.202;16.334;2022-08-01T03:37:12;98849.16;;;22.26;52.46
40155;BME280;25875;48.202;16.334;2022-08-01T03:39:44;98846.13;;;22.29;52.13
40155;BME280;25875;48.202;16.334;2022-08-01T03:42:17;98853.72;;;22.26;52.25
40155;BME280;25875;48.202;16.334;2022-08-01T03:44:48;98841.72;;;22.28;52.13
40155;BME280;25875;48.202;16.334;2022-08-01T03:47:22;98850.00;;;22.27;52.25
40155;BME280;25875;48.202;16.334;2022-08-01T03:49:52;98847.66;;;22.24;52.34
40155;BME280;25875;48.202;16.334;2022-08-01T03:52:21;98850.50;;;22.22;52.42
40155;BME280;25875;48.202;16.334;2022-08-01T03:54:51;98849.31;;;22.25;52.27
40155;BME280;25875;48.202;16.334;2022-08-01T03:57:22;98832.31;;;22.08;52.26
40155;BME280;25875;48.202;16.334;2022-08-01T03:59:51;98847.97;;;22.21;51.94
40155;BME280;25875;48.202;16.334;2022-08-01T04:02:20;98844.94;;;22.24;51.98
40155;BME280;25875;48.202;16.334;2022-08-01T04:04:48;98845.97;;;22.23;52.04
40155;BME280;25875;48.202;16.334;2022-08-01T04:07:23;98855.41;;;22.27;51.75
40155;BME280;25875;48.202;16.334;2022-08-01T04:09:50;98854.38;;;22.28;51.80
40155;BME280;25875;48.202;16.334;2022-08-01T04:12:18;98817.13;;;22.07;51.79
40155;BME280;25875;48.202;16.334;2022-08-01T04:14:45;98853.38;;;22.29;51.83
40155;BME280;25875;48.202;16.334;2022-08-01T04:17:13;98858.78;;;22.29;51.80
40155;BME280;25875;48.202;16.334;2022-08-01T04:19:42;98860.63;;;22.28;51.86
40155;BME280;25875;48.202;16.334;2022-08-01T04:22:11;98865.84;;;22.30;51.59
40155;BME280;25875;48.202;16.334;2022-08-01T04:24:41;98857.94;;;22.20;51.79
40155;BME280;25875;48.202;16.334;2022-08-01T04:27:11;98864.84;;;22.31;51.92
40155;BME280;25875;48.202;16.334;2022-08-01T04:29:40;98877.66;;;22.29;51.62
40155;BME280;25875;48.202;16.334;2022-08-01T04:32:12;98878.50;;;22.29;51.69
40155;BME280;25875;48.202;16.334;2022-08-01T04:34:44;98874.78;;;22.30;51.32
40155;BME280;25875;48.202;16.334;2022-08-01T04:37:14;98873.94;;;22.30;51.68
40155;BME280;25875;48.202;16.334;2022-08-01T04:39:45;98874.78;;;22.30;51.60
40155;BME280;25875;48.202;16.334;2022-08-01T04:42:13;98880.03;;;22.32;51.80
40155;BME280;25875;48.202;16.334;2022-08-01T04:44:42;98884.06;;;22.28;51.69
40155;BME280;25875;48.202;16.334;2022-08-01T04:47:10;98878.34;;;22.31;51.47
40155;BME280;25875;48.202;16.334;2022-08-01T04:49:38;98878.34;;;22.31;51.26
40155;BME280;25875;48.202;16.334;2022-08-01T04:52:08;98881.53;;;22.34;51.09
40155;BME280;25875;48.202;16.334;2022-08-01T04:54:35;98866.53;;;22.24;50.94
40155;BME280;25875;48.202;16.334;2022-08-01T04:57:04;98886.75;;;22.36;51.07
40155;BME280;25875;48.202;16.334;2022-08-01T04:59:32;98883.22;;;22.35;50.78
40155;BME280;25875;48.202;16.334;2022-08-01T05:02:08;98883.41;;;22.34;50.95
40155;BME280;25875;48.202;16.334;2022-08-01T05:04:36;98875.97;;;22.36;51.39
40155;BME280;25875;48.202;16.334;2022-08-01T05:07:04;98876.97;;;22.35;50.90
40155;BME280;25875;48.202;16.334;2022-08-01T05:09:33;98874.47;;;22.41;50.64
40155;BME280;25875;48.202;16.334;2022-08-01T05:12:02;98847.16;;;22.20;50.41
40155;BME280;25875;48.202;16.334;2022-08-01T05:14:30;98879.88;;;22.41;51.00
40155;BME280;25875;48.202;16.334;2022-08-01T05:16:58;98867.03;;;22.44;50.70
40155;BME280;25875;48.202;16.334;2022-08-01T05:19:25;98856.56;;;22.32;50.66
40155;BME280;25875;48.202;16.334;2022-08-01T05:21:53;98876.84;;;22.45;51.09
40155;BME280;25875;48.202;16.334;2022-08-01T05:24:20;98870.59;;;22.44;51.02
40155;BME280;25875;48.202;16.334;2022-08-01T05:26:49;98875.16;;;22.44;51.22
40155;BME280;25875;48.202;16.334;2022-08-01T05:29:16;98879.34;;;22.46;51.25
40155;BME280;25875;48.202;16.334;2022-08-01T05:31:44;98882.41;;;22.43;51.06
40155;BME280;25875;48.202;16.334;2022-08-01T05:34:11;98884.94;;;22.45;51.37
40155;BME280;25875;48.202;16.334;2022-08-01T05:36:38;98882.06;;;22.46;51.20
40155;BME280;25875;48.202;16.334;2022-08-01T05:39:05;98887.47;;;22.46;51.19
40155;BME280;25875;48.202;16.334;2022-08-01T05:41:32;98888.97;;;22.49;51.31
40155;BME280;25875;48.202;16.334;2022-08-01T05:44:02;98888.81;;;22.50;51.67
40155;BME280;25875;48.202;16.334;2022-08-01T05:46:29;98884.41;;;22.49;51.55
40155;BME280;25875;48.202;16.334;2022-08-01T05:48:56;98821.53;;;22.08;51.53
40155;BME280;25875;48.202;16.334;2022-08-01T05:51:24;98817.97;;;22.16;51.48
40155;BME280;25875;48.202;16.334;2022-08-01T05:53:52;98837.53;;;22.26;51.00
40155;BME280;25875;48.202;16.334;2022-08-01T05:56:20;98862.31;;;22.46;50.96
40155;BME280;25875;48.202;16.334;2022-08-01T05:58:48;98851.84;;;22.42;50.64
40155;BME280;25875;48.202;16.334;2022-08-01T06:01:17;98856.75;;;22.47;50.37
40155;BME280;25875;48.202;16.334;2022-08-01T06:03:44;98883.25;;;22.60;50.90
40155;BME280;25875;48.202;16.334;2022-08-01T06:06:12;98865.16;;;22.52;50.83
40155;BME280;25875;48.202;16.334;2022-08-01T06:08:41;98878.16;;;22.65;50.65
40155;BME280;25875;48.202;16.334;2022-08-01T06:11:08;98854.72;;;22.49;50.84
40155;BME280;25875;48.202;16.334;2022-08-01T06:13:35;98859.63;;;22.46;50.72
40155;BME280;25875;48.202;16.334;2022-08-01T06:16:03;98900.28;;;22.68;50.86
40155;BME280;25875;48.202;16.334;2022-08-01T06:18:31;98875.97;;;22.60;50.71
40155;BME280;25875;48.202;16.334;2022-08-01T06:20:58;98899.25;;;22.69;51.44
40155;BME280;25875;48.202;16.334;2022-08-01T06:23:26;98896.38;;;22.71;51.56
40155;BME280;25875;48.202;16.334;2022-08-01T06:25:53;98827.72;;;22.25;51.64
40155;BME280;25875;48.202;16.334;2022-08-01T06:28:21;98873.78;;;22.48;51.26
40155;BME280;25875;48.202;16.334;2022-08-01T06:30:48;98898.03;;;22.80;51.22
40155;BME280;25875;48.202;16.334;2022-08-01T06:33:16;98907.00;;;22.81;51.43
40155;BME280;25875;48.202;16.334;2022-08-01T06:35:44;98910.84;;;22.86;51.56
40155;BME280;25875;48.202;16.334;2022-08-01T06:38:11;98888.78;;;22.75;51.46
40155;BME280;25875;48.202;16.334;2022-08-01T06:40:39;98910.34;;;22.91;50.95
40155;BME280;25875;48.202;16.334;2022-08-01T06:43:06;98906.63;;;22.92;50.77
40155;BME280;25875;48.202;16.334;2022-08-01T06:45:33;98913.53;;;22.94;50.83
40155;BME280;25875;48.202;16.334;2022-08-01T06:48:02;98910.66;;;22.96;50.56
40155;BME280;25875;48.202;16.334;2022-08-01T06:50:31;98903.88;;;23.00;50.11
40155;BME280;25875;48.202;16.334;2022-08-01T06:53:00;98905.06;;;23.05;50.61
40155;BME280;25875;48.202;16.334;2022-08-01T06:55:27;98903.84;;;23.08;50.54
40155;BME280;25875;48.202;16.334;2022-08-01T06:57:54;98905.19;;;23.12;50.08
40155;BME280;25875;48.202;16.334;2022-08-01T07:00:23;98895.19;;;23.21;49.86
40155;BME280;25875;48.202;16.334;2022-08-01T07:02:51;98896.50;;;23.25;49.41
40155;BME280;25875;48.202;16.334;2022-08-01T07:05:19;98893.28;;;23.38;49.77
40155;BME280;25875;48.202;16.334;2022-08-01T07:07:46;98899.31;;;23.48;49.65
40155;BME280;25875;48.202;16.334;2022-08-01T07:10:15;98900.28;;;23.55;49.68
40155;BME280;25875;48.202;16.334;2022-08-01T07:12:42;98864.72;;;23.35;49.57
40155;BME280;25875;48.202;16.334;2022-08-01T07:15:10;98900.22;;;23.63;48.08
40155;BME280;25875;48.202;16.334;2022-08-01T07:17:38;98902.22;;;23.69;47.93
40155;BME280;25875;48.202;16.334;2022-08-01T07:20:07;98903.34;;;23.75;47.97
40155;BME280;25875;48.202;16.334;2022-08-01T07:22:35;98894.69;;;23.79;47.13
40155;BME280;25875;48.202;16.334;2022-08-01T07:25:04;98896.19;;;23.82;47.68
40155;BME280;25875;48.202;16.334;2022-08-01T07:27:33;98902.94;;;23.86;47.22
40155;BME280;25875;48.202;16.334;2022-08-01T07:30:00;98907.50;;;23.85;46.90
40155;BME280;25875;48.202;16.334;2022-08-01T07:32:28;98909.19;;;23.86;46.66
40155;BME280;25875;48.202;16.334;2022-08-01T07:34:55;98903.78;;;23.86;46.56
40155;BME280;25875;48.202;16.334;2022-08-01T07:37:23;98910.88;;;23.87;46.96
40155;BME280;25875;48.202;16.334;2022-08-01T07:39:50;98910.88;;;23.87;46.48
40155;BME280;25875;48.202;16.334;2022-08-01T07:42:18;98916.66;;;23.84;46.41
40155;BME280;25875;48.202;16.334;2022-08-01T07:44:47;98918.34;;;23.85;46.62
40155;BME280;25875;48.202;16.334;2022-08-01T07:47:14;98917.31;;;23.86;47.59
40155;BME280;25875;48.202;16.334;2022-08-01T07:49:41;98921.88;;;23.86;47.68
40155;BME280;25875;48.202;16.334;2022-08-01T07:52:09;98914.59;;;23.86;47.87
40155;BME280;25875;48.202;16.334;2022-08-01T07:54:36;98920.38;;;23.83;47.69
40155;BME280;25875;48.202;16.334;2022-08-01T07:57:04;98918.50;;;23.84;48.24
40155;BME280;25875;48.202;16.334;2022-08-01T07:59:31;98928.69;;;23.82;48.16
40155;BME280;25875;48.202;16.334;2022-08-01T08:02:00;98925.31;;;23.80;47.97
40155;BME280;25875;48.202;16.334;2022-08-01T08:04:27;98926.16;;;23.80;48.06
40155;BME280;25875;48.202;16.334;2022-08-01T08:06:54;98927.16;;;23.79;48.22
40155;BME280;25875;48.202;16.334;2022-08-01T08:09:22;98926.50;;;23.77;48.18
40155;BME280;25875;48.202;16.334;2022-08-01T08:11:49;98931.06;;;23.77;48.62
40155;BME280;25875;48.202;16.334;2022-08-01T08:14:17;98931.75;;;23.79;48.73
40155;BME280;25875;48.202;16.334;2022-08-01T08:16:44;98932.75;;;23.78;48.33
40155;BME280;25875;48.202;16.334;2022-08-01T08:19:13;98926.16;;;23.80;48.56
40155;BME280;25875;48.202;16.334;2022-08-01T08:21:41;98931.44;;;23.74;48.04
40155;BME280;25875;48.202;16.334;2022-08-01T08:24:09;98913.50;;;23.50;47.46
40155;BME280;25875;48.202;16.334;2022-08-01T08:26:51;98944.44;;;23.78;48.01
40155;BME280;25875;48.202;16.334;2022-08-01T08:29:20;98934.25;;;23.80;47.82
40155;BME280;25875;48.202;16.334;2022-08-01T08:31:48;98932.16;;;23.90;48.25
40155;BME280;25875;48.202;16.334;2022-08-01T08:34:18;98911.91;;;23.86;48.24
40155;BME280;25875;48.202;16.334;2022-08-01T08:36:45;98934.13;;;24.05;47.70
40155;BME280;25875;48.202;16.334;2022-08-01T08:39:12;98933.69;;;24.16;47.80
40155;BME280;25875;48.202;16.334;2022-08-01T08:41:39;98857.84;;;23.78;47.47
40155;BME280;25875;48.202;16.334;2022-08-01T08:44:08;98893.81;;;24.10;46.79
40155;BME280;25875;48.202;16.334;2022-08-01T08:46:40;98931.56;;;24.49;46.86
40155;BME280;25875;48.202;16.334;2022-08-01T08:49:09;98929.59;;;24.57;46.44
40155;BME280;25875;48.202;16.334;2022-08-01T08:51:39;98930.72;;;24.63;45.53
40155;BME280;25875;48.202;16.334;2022-08-01T08:54:10;98936.88;;;24.80;45.86
40155;BME280;25875;48.202;16.334;2022-08-01T08:56:38;98936.13;;;24.86;45.51
40155;BME280;25875;48.202;16.334;2022-08-01T08:59:06;98924.94;;;25.04;45.47
40155;BME280;25875;48.202;16.334;2022-08-01T09:01:33;98931.66;;;25.22;45.32
40155;BME280;25875;48.202;16.334;2022-08-01T09:04:01;98886.97;;;25.04;44.76
40155;BME280;25875;48.202;16.334;2022-08-01T09:06:29;98918.69;;;25.33;45.14
40155;BME280;25875;48.202;16.334;2022-08-01T09:08:58;98928.16;;;25.58;44.97
40155;BME280;25875;48.202;16.334;2022-08-01T09:11:26;98917.84;;;25.68;44.91
40155;BME280;25875;48.202;16.334;2022-08-01T09:14:05;98883.66;;;25.52;44.43
40155;BME280;25875;48.202;16.334;2022-08-01T09:16:33;98906.63;;;25.92;44.54
40155;BME280;25875;48.202;16.334;2022-08-01T09:19:12;98924.16;;;26.33;43.66
40155;BME280;25875;48.202;16.334;2022-08-01T09:21:40;98845.66;;;25.95;43.76
40155;BME280;25875;48.202;16.334;2022-08-01T09:24:24;98935.59;;;26.49;42.45
40155;BME280;25875;48.202;16.334;2022-08-01T09:26:53;98935.19;;;26.52;43.12
40155;BME280;25875;48.202;16.334;2022-08-01T09:29:24;98930.47;;;26.61;43.27
40155;BME280;25875;48.202;16.334;2022-08-01T09:31:52;98949.00;;;26.79;42.46
40155;BME280;25875;48.202;16.334;2022-08-01T09:34:24;98950.94;;;26.85;42.32
40155;BME280;25875;48.202;16.334;2022-08-01T09:36:54;98940.69;;;26.87;42.27
40155;BME280;25875;48.202;16.334;2022-08-01T09:39:26;98939.47;;;26.90;42.34
40155;BME280;25875;48.202;16.334;2022-08-01T09:41:55;98886.66;;;26.71;42.92
40155;BME280;25875;48.202;16.334;2022-08-01T09:44:37;98925.22;;;27.22;42.76
40155;BME280;25875;48.202;16.334;2022-08-01T09:47:05;98934.53;;;27.41;42.58
40155;BME280;25875;48.202;16.334;2022-08-01T09:49:34;98936.84;;;27.44;42.33
40155;BME280;25875;48.202;16.334;2022-08-01T09:52:11;98923.47;;;27.49;42.52
40155;BME280;25875;48.202;16.334;2022-08-01T09:54:42;98912.13;;;27.32;42.29
40155;BME280;25875;48.202;16.334;2022-08-01T09:57:12;98928.25;;;27.40;42.48
40155;BME280;25875;48.202;16.334;2022-08-01T09:59:41;98941.44;;;27.37;42.54
40155;BME280;25875;48.202;16.334;2022-08-01T10:02:10;98936.38;;;27.27;42.09
40155;BME280;25875;48.202;16.334;2022-08-01T10:04:49;98938.81;;;27.22;40.79
40155;BME280;25875;48.202;16.334;2022-08-01T10:07:17;98940.63;;;27.08;42.05
40155;BME280;25875;48.202;16.334;2022-08-01T10:09:46;98935.75;;;26.97;42.07
40155;BME280;25875;48.202;16.334;2022-08-01T10:12:15;98904.91;;;26.83;42.55
40155;BME280;25875;48.202;16.334;2022-08-01T10:14:46;98930.38;;;27.10;43.08
40155;BME280;25875;48.202;16.334;2022-08-01T10:17:16;98908.38;;;27.05;42.47
40155;BME280;25875;48.202;16.334;2022-08-01T10:19:44;98828.28;;;26.67;42.38
40155;BME280;25875;48.202;16.334;2022-08-01T10:22:12;98936.28;;;27.21;42.24
40155;BME280;25875;48.202;16.334;2022-08-01T10:24:43;98938.78;;;27.15;42.58
40155;BME280;25875;48.202;16.334;2022-08-01T10:27:14;98930.63;;;27.15;42.23
40155;BME280;25875;48.202;16.334;2022-08-01T10:29:46;98921.81;;;27.13;42.60
40155;BME280;25875;48.202;16.334;2022-08-01T10:32:14;98846.31;;;26.74;42.93
40155;BME280;25875;48.202;16.334;2022-08-01T10:34:43;98921.91;;;27.27;42.98
40155;BME280;25875;48.202;16.334;2022-08-01T10:37:10;98917.97;;;27.29;42.04
40155;BME280;25875;48.202;16.334;2022-08-01T10:39:40;98908.38;;;27.40;42.18
40155;BME280;25875;48.202;16.334;2022-08-01T10:42:10;98903.19;;;27.52;42.17
40155;BME280;25875;48.202;16.334;2022-08-01T10:44:40;98912.41;;;27.57;42.14
40155;BME280;25875;48.202;16.334;2022-08-01T10:47:09;98896.72;;;27.59;41.73
40155;BME280;25875;48.202;16.334;2022-08-01T10:49:41;98902.41;;;27.64;41.29
40155;BME280;25875;48.202;16.334;2022-08-01T10:52:14;98877.91;;;27.64;40.48
40155;BME280;25875;48.202;16.334;2022-08-01T10:54:43;98879.81;;;27.64;40.72
40155;BME280;25875;48.202;16.334;2022-08-01T10:57:10;98865.56;;;27.62;40.59
40155;BME280;25875;48.202;16.334;2022-08-01T10:59:49;98878.63;;;27.93;40.77
40155;BME280;25875;48.202;16.334;2022-08-01T11:02:27;98885.16;;;28.11;39.85
40155;BME280;25875;48.202;16.334;2022-08-01T11:04:57;98889.97;;;28.23;40.00
40155;BME280;25875;48.202;16.334;2022-08-01T11:07:39;98880.13;;;28.35;38.44
40155;BME280;25875;48.202;16.334;2022-08-01T11:10:19;98889.13;;;28.29;38.58
40155;BME280;25875;48.202;16.334;2022-08-01T11:12:49;98886.84;;;28.26;39.76
40155;BME280;25875;48.202;16.334;2022-08-01T11:15:22;98838.84;;;28.18;38.76
40155;BME280;25875;48.202;16.334;2022-08-01T11:17:54;98827.31;;;28.16;38.88
40155;BME280;25875;48.202;16.334;2022-08-01T11:20:23;98876.97;;;28.38;37.67
40155;BME280;25875;48.202;16.334;2022-08-01T11:23:24;98874.28;;;28.44;36.61
40155;BME280;25875;48.202;16.334;2022-08-01T11:26:11;98867.34;;;28.35;37.54
40155;BME280;25875;48.202;16.334;2022-08-01T11:28:40;98862.31;;;28.32;37.96
40155;BME280;25875;48.202;16.334;2022-08-01T11:31:34;98870.69;;;28.24;36.73
40155;BME280;25875;48.202;16.334;2022-08-01T11:34:02;98863.78;;;28.22;37.89
40155;BME280;25875;48.202;16.334;2022-08-01T11:36:29;98873.00;;;28.21;38.04
40155;BME280;25875;48.202;16.334;2022-08-01T11:39:16;98818.94;;;27.91;37.02
40155;BME280;25875;48.202;16.334;2022-08-01T11:41:45;98803.81;;;27.75;37.91
40155;BME280;25875;48.202;16.334;2022-08-01T11:44:14;98844.28;;;28.11;38.42
40155;BME280;25875;48.202;16.334;2022-08-01T11:46:51;98840.72;;;28.11;38.25
40155;BME280;25875;48.202;16.334;2022-08-01T11:49:27;98866.28;;;28.17;37.97
40155;BME280;25875;48.202;16.334;2022-08-01T11:51:57;98816.16;;;27.78;38.53
40155;BME280;25875;48.202;16.334;2022-08-01T11:54:27;98870.91;;;28.09;38.87
40155;BME280;25875;48.202;16.334;2022-08-01T11:56:56;98875.91;;;27.99;37.89
40155;BME280;25875;48.202;16.334;2022-08-01T11:59:23;98789.09;;;27.50;38.83
40155;BME280;25875;48.202;16.334;2022-08-01T12:01:52;98873.00;;;28.01;38.19
40155;BME280;25875;48.202;16.334;2022-08-01T12:04:20;98862.72;;;27.90;38.26
40155;BME280;25875;48.202;16.334;2022-08-01T12:06:47;98877.59;;;28.00;39.27
40155;BME280;25875;48.202;16.334;2022-08-01T12:09:19;98878.44;;;28.01;39.58
40155;BME280;25875;48.202;16.334;2022-08-01T12:11:47;98883.47;;;27.97;39.25
40155;BME280;25875;48.202;16.334;2022-08-01T12:14:21;98885.28;;;27.77;38.21
40155;BME280;25875;48.202;16.334;2022-08-01T12:16:51;98883.78;;;27.68;38.92
40155;BME280;25875;48.202;16.334;2022-08-01T12:19:21;98900.28;;;27.60;39.35
40155;BME280;25875;48.202;16.334;2022-08-01T12:22:09;98843.28;;;26.97;39.11
40155;BME280;25875;48.202;16.334;2022-08-01T12:24:37;98902.63;;;27.22;39.82
40155;BME280;25875;48.202;16.334;2022-08-01T12:27:06;98907.59;;;27.11;40.38
40155;BME280;25875;48.202;16.334;2022-08-01T12:29:35;98916.16;;;27.08;40.45
40155;BME280;25875;48.202;16.334;2022-08-01T12:32:20;98923.88;;;27.05;39.45
40155;BME280;25875;48.202;16.334;2022-08-01T12:34:49;98913.19;;;27.03;40.25
40155;BME280;25875;48.202;16.334;2022-08-01T12:37:16;98869.66;;;26.62;39.47
40155;BME280;25875;48.202;16.334;2022-08-01T12:39:45;98900.75;;;26.88;39.64
40155;BME280;25875;48.202;16.334;2022-08-01T12:42:14;98836.47;;;26.45;39.28
40155;BME280;25875;48.202;16.334;2022-08-01T12:44:43;98819.91;;;26.34;39.21
40155;BME280;25875;48.202;16.334;2022-08-01T12:47:14;98905.31;;;26.80;39.28
40155;BME280;25875;48.202;16.334;2022-08-01T12:49:42;98915.31;;;26.73;39.92
40155;BME280;25875;48.202;16.334;2022-08-01T12:52:11;98892.69;;;26.66;40.23
40155;BME280;25875;48.202;16.334;2022-08-01T12:55:02;98917.34;;;26.65;40.54
40155;BME280;25875;48.202;16.334;2022-08-01T12:57:30;98903.31;;;26.61;41.47
40155;BME280;25875;48.202;16.334;2022-08-01T13:00:07;98895.28;;;26.53;42.02
40155;BME280;25875;48.202;16.334;2022-08-01T13:02:37;98908.16;;;26.44;42.27
40155;BME280;25875;48.202;16.334;2022-08-01T13:05:06;98883.34;;;26.26;42.50